Time;durP1;ratioP1;P1;durP2;ratioP2;P2;SDS_P1;SDS_P2;PMS_P1;PMS_P2;Temp;Humidity;BMP_temperature;BMP_pressure;BME280_temperature;BME280_humidity;BME280_pressure;Samples;Min_cycle;Max_cycle;Signal;HPM_P1;HPM_P2
2021/05/24 00:00:58;;;;;;;1.53;1.13;;;;;;;;;;5001288;28;20205;-74
2021/05/24 00:04:03;;;;;;;2.60;1.00;;;;;;;;;;5014002;28;20213;-73
2021/05/24 00:07:07;;;;;;;1.30;1.20;;;;;;;;;;5013619;28;20174;-74
2021/05/24 00:10:17;;;;;;;2.13;1.03;;;;;;;;;;4994983;28;20221;-74
2021/05/24 00:13:22;;;;;;;3.03;1.10;;;;;;;;;;5004217;28;20221;-73
2021/05/24 00:16:26;;;;;;;3.90;1.20;;;;;;;;;;5002665;28;20202;-74
2021/05/24 00:19:34;;;;;;;2.80;1.30;;;;;;;;;;4995434;28;20182;-74
2021/05/24 00:22:39;;;;;;;2.57;1.27;;;;;;;;;;5012972;28;20573;-73
2021/05/24 00:25:43;;;;;;;1.70;0.87;;;;;;;;;;5013981;28;20185;-73
2021/05/24 00:28:47;;;;;;;1.10;0.80;;;;;;;;;;4993766;28;20645;-74
2021/05/24 00:31:51;;;;;;;2.90;1.13;;;;;;;;;;4994148;28;20213;-73
2021/05/24 00:34:56;;;;;;;1.67;1.00;;;;;;;;;;4993959;28;20174;-74
2021/05/24 00:38:03;;;;;;;2.90;0.90;;;;;;;;;;5001167;28;20189;-74
2021/05/24 00:41:07;;;;;;;2.13;1.30;;;;;;;;;;4998541;28;20182;-74
2021/05/24 00:44:11;;;;;;;1.97;0.90;;;;;;;;;;4994125;28;20205;-73
2021/05/24 00:47:16;;;;;;;2.87;1.10;;;;;;;;;;4994079;28;20660;-73
2021/05/24 00:50:20;;;;;;;2.63;0.93;;;;;;;;;;4993782;28;20205;-74
2021/05/24 00:53:25;;;;;;;1.40;0.90;;;;;;;;;;4997846;28;20221;-74
2021/05/24 00:56:30;;;;;;;1.23;0.90;;;;;;;;;;5007067;28;20189;-74
2021/05/24 00:59:35;;;;;;;1.70;0.90;;;;;;;;;;4993928;28;20186;-74
2021/05/24 01:02:39;;;;;;;1.20;0.83;;;;;;;;;;5003083;28;20218;-74
2021/05/24 01:05:45;;;;;;;3.00;0.90;;;;;;;;;;4993120;28;20183;-73
2021/05/24 01:08:49;;;;;;;1.40;1.20;;;;;;;;;;4983080;28;20561;-74
2021/05/24 01:11:53;;;;;;;2.60;0.90;;;;;;;;;;5010410;28;20217;-74
2021/05/24 01:14:58;;;;;;;3.33;1.37;;;;;;;;;;4996145;28;20185;-74
2021/05/24 01:18:02;;;;;;;1.60;0.80;;;;;;;;;;4993850;28;20186;-74
2021/05/24 01:21:11;;;;;;;1.10;1.00;;;;;;;;;;4995857;28;20637;-74
2021/05/24 01:24:18;;;;;;;2.70;1.10;;;;;;;;;;4997613;28;20194;-74
2021/05/24 01:27:25;;;;;;;1.00;0.83;;;;;;;;;;4993813;28;20645;-74
2021/05/24 01:30:29;;;;;;;2.50;1.43;;;;;;;;;;5002681;28;20193;-74
2021/05/24 01:33:35;;;;;;;2.00;1.10;;;;;;;;;;5007857;28;20213;-74
2021/05/24 01:36:39;;;;;;;3.20;1.00;;;;;;;;;;5013127;28;20193;-74
2021/05/24 01:39:43;;;;;;;2.03;0.97;;;;;;;;;;5014155;28;20181;-74
2021/05/24 01:42:52;;;;;;;2.10;1.10;;;;;;;;;;5011137;28;20209;-74
2021/05/24 01:45:57;;;;;;;1.83;1.03;;;;;;;;;;5004597;28;20185;-74
2021/05/24 01:49:01;;;;;;;2.53;1.40;;;;;;;;;;5002460;28;20190;-73
2021/05/24 01:52:07;;;;;;;1.90;1.07;;;;;;;;;;5015708;28;20229;-73
2021/05/24 01:55:11;;;;;;;2.60;1.20;;;;;;;;;;4985258;28;20190;-74
2021/05/24 01:58:17;;;;;;;2.57;1.10;;;;;;;;;;4997345;28;20178;-74
2021/05/24 02:01:21;;;;;;;3.47;1.43;;;;;;;;;;5012745;28;20190;-74
2021/05/24 02:04:26;;;;;;;2.70;1.27;;;;;;;;;;5001876;28;20182;-73
2021/05/24 02:07:30;;;;;;;3.17;1.33;;;;;;;;;;5016198;28;20186;-74
2021/05/24 02:10:38;;;;;;;1.23;1.13;;;;;;;;;;5003881;28;20201;-74
2021/05/24 02:13:46;;;;;;;2.30;1.10;;;;;;;;;;4996478;28;20214;-74
2021/05/24 02:16:50;;;;;;;4.30;1.27;;;;;;;;;;5003792;28;20182;-74
2021/05/24 02:19:54;;;;;;;2.70;1.40;;;;;;;;;;5004138;28;20625;-74
2021/05/24 02:22:59;;;;;;;3.50;1.20;;;;;;;;;;4997829;28;20221;-74
2021/05/24 02:26:04;;;;;;;2.40;1.10;;;;;;;;;;5010739;28;20227;-74
2021/05/24 02:29:09;;;;;;;3.53;1.20;;;;;;;;;;5016379;28;20173;-74
2021/05/24 02:32:13;;;;;;;3.77;1.07;;;;;;;;;;4984032;28;20222;-74
2021/05/24 02:35:20;;;;;;;3.00;1.20;;;;;;;;;;5012512;28;20194;-74
2021/05/24 02:38:24;;;;;;;3.07;1.10;;;;;;;;;;4996036;28;20194;-74
2021/05/24 02:41:28;;;;;;;4.17;1.30;;;;;;;;;;5009216;28;20174;-74
2021/05/24 02:44:32;;;;;;;2.17;0.80;;;;;;;;;;5012264;28;20644;-74
2021/05/24 02:47:37;;;;;;;2.10;1.20;;;;;;;;;;5016058;28;20177;-74
2021/05/24 02:50:41;;;;;;;2.80;1.07;;;;;;;;;;5004949;28;20186;-74
2021/05/24 02:53:45;;;;;;;1.30;0.97;;;;;;;;;;4996048;28;20214;-74
2021/05/24 02:56:50;;;;;;;3.63;0.87;;;;;;;;;;4995215;28;20205;-74
2021/05/24 02:59:54;;;;;;;2.70;1.20;;;;;;;;;;4995864;28;20178;-74
2021/05/24 03:02:58;;;;;;;1.87;0.90;;;;;;;;;;5013935;28;20683;-74
2021/05/24 03:06:04;;;;;;;1.80;0.90;;;;;;;;;;5003888;28;20189;-74
2021/05/24 03:09:08;;;;;;;2.50;0.83;;;;;;;;;;5006145;28;20206;-74
2021/05/24 03:12:12;;;;;;;1.43;0.83;;;;;;;;;;5000584;28;20696;-74
2021/05/24 03:15:18;;;;;;;2.33;1.00;;;;;;;;;;5005970;28;20193;-74
2021/05/24 03:18:22;;;;;;;1.40;1.10;;;;;;;;;;5015467;28;20185;-73
2021/05/24 03:21:26;;;;;;;2.23;0.80;;;;;;;;;;5001093;28;20186;-74
2021/05/24 03:24:30;;;;;;;2.83;0.80;;;;;;;;;;5014619;28;20208;-74
2021/05/24 03:27:34;;;;;;;2.30;0.83;;;;;;;;;;5014709;28;20537;-74
2021/05/24 03:30:38;;;;;;;1.57;1.00;;;;;;;;;;4983782;28;20187;-74
2021/05/24 03:33:43;;;;;;;1.70;1.10;;;;;;;;;;5009640;28;20221;-74
2021/05/24 03:36:47;;;;;;;1.77;1.00;;;;;;;;;;5014872;28;20186;-74
2021/05/24 03:39:51;;;;;;;3.47;0.80;;;;;;;;;;5010154;28;20193;-74
2021/05/24 03:42:56;;;;;;;1.00;0.80;;;;;;;;;;4993503;28;20209;-74
2021/05/24 03:46:00;;;;;;;1.53;0.90;;;;;;;;;;4996084;28;20641;-74
2021/05/24 03:49:05;;;;;;;1.10;0.90;;;;;;;;;;5003658;28;20190;-74
2021/05/24 03:52:09;;;;;;;2.23;1.00;;;;;;;;;;4994950;28;20575;-74
2021/05/24 03:55:17;;;;;;;2.70;1.03;;;;;;;;;;5008651;28;20537;-74
2021/05/24 03:58:21;;;;;;;2.20;0.87;;;;;;;;;;5010642;28;20198;-74
2021/05/24 04:01:25;;;;;;;3.07;0.90;;;;;;;;;;5010269;28;20190;-74
2021/05/24 04:04:29;;;;;;;2.27;0.97;;;;;;;;;;5006041;28;20194;-74
2021/05/24 04:07:34;;;;;;;3.27;0.97;;;;;;;;;;5007655;28;20190;-74
2021/05/24 04:10:43;;;;;;;1.43;0.83;;;;;;;;;;5014586;28;20200;-73
2021/05/24 04:13:50;;;;;;;3.00;0.90;;;;;;;;;;4999678;28;20214;-74
2021/05/24 04:16:55;;;;;;;2.07;1.07;;;;;;;;;;4994453;28;20178;-74
2021/05/24 04:20:00;;;;;;;2.10;0.90;;;;;;;;;;5005124;28;20178;-74
2021/05/24 04:23:04;;;;;;;1.67;1.00;;;;;;;;;;5012853;28;20213;-74
2021/05/24 04:26:09;;;;;;;2.80;0.73;;;;;;;;;;4998103;28;20185;-74
2021/05/24 04:29:13;;;;;;;1.77;0.90;;;;;;;;;;4994627;28;20182;-74
2021/05/24 04:32:18;;;;;;;2.23;1.00;;;;;;;;;;4994245;28;20226;-74
2021/05/24 04:35:22;;;;;;;0.97;0.70;;;;;;;;;;4994029;28;20534;-74
2021/05/24 04:38:26;;;;;;;2.50;1.00;;;;;;;;;;4994263;28;20197;-74
2021/05/24 04:41:30;;;;;;;2.20;0.90;;;;;;;;;;5003027;28;20193;-74
2021/05/24 04:44:34;;;;;;;1.30;1.00;;;;;;;;;;5001688;28;20181;-74
2021/05/24 04:47:40;;;;;;;1.27;1.00;;;;;;;;;;5012815;28;20193;-74
2021/05/24 04:50:44;;;;;;;3.23;1.10;;;;;;;;;;5013734;28;20178;-73
2021/05/24 04:53:48;;;;;;;2.10;0.80;;;;;;;;;;5011866;28;20213;-74
2021/05/24 04:56:53;;;;;;;1.00;0.87;;;;;;;;;;4982048;28;20533;-74
2021/05/24 04:59:57;;;;;;;1.80;0.87;;;;;;;;;;4998841;28;20648;-74
2021/05/24 05:03:01;;;;;;;1.57;0.80;;;;;;;;;;5005287;28;20588;-74
2021/05/24 05:06:06;;;;;;;2.60;1.10;;;;;;;;;;4993613;28;20198;-74
2021/05/24 05:09:42;;;;;;;3.03;0.77;;;;;;;;;;5006219;28;20209;-74
2021/05/24 05:12:46;;;;;;;0.60;0.60;;;;;;;;;;4939223;29;20240;-72
2021/05/24 05:15:50;;;;;;;1.37;0.73;;;;;;;;;;4929018;29;20192;-72
2021/05/24 05:18:55;;;;;;;2.37;1.00;;;;;;;;;;4939898;29;20184;-72
2021/05/24 05:21:59;;;;;;;1.80;0.80;;;;;;;;;;4917300;29;20227;-72
2021/05/24 05:25:04;;;;;;;2.60;0.90;;;;;;;;;;4951224;29;20183;-71
2021/05/24 05:28:10;;;;;;;2.77;0.70;;;;;;;;;;4958674;29;20183;-72
2021/05/24 05:31:14;;;;;;;2.53;0.73;;;;;;;;;;4957746;29;20191;-73
2021/05/24 05:34:18;;;;;;;2.60;0.90;;;;;;;;;;4939548;29;20180;-72
2021/05/24 05:37:22;;;;;;;2.60;0.97;;;;;;;;;;4958573;29;20187;-72
2021/05/24 05:40:28;;;;;;;2.23;1.00;;;;;;;;;;4954990;29;20188;-72
2021/05/24 05:43:32;;;;;;;2.33;0.90;;;;;;;;;;4936659;29;20215;-72
2021/05/24 05:46:36;;;;;;;1.30;0.83;;;;;;;;;;4957015;29;20199;-72
2021/05/24 05:49:41;;;;;;;0.67;0.50;;;;;;;;;;4953153;29;20191;-72
2021/05/24 05:52:45;;;;;;;1.07;0.60;;;;;;;;;;4953719;29;20235;-72
2021/05/24 05:55:52;;;;;;;0.90;0.60;;;;;;;;;;4939128;29;20192;-73
2021/05/24 05:58:56;;;;;;;0.90;0.70;;;;;;;;;;4949749;29;20195;-71
2021/05/24 06:02:00;;;;;;;1.17;0.60;;;;;;;;;;4956618;29;20207;-71
2021/05/24 06:05:05;;;;;;;0.77;0.60;;;;;;;;;;4957107;29;20188;-71
2021/05/24 06:08:09;;;;;;;2.60;0.60;;;;;;;;;;4946641;29;20183;-73
2021/05/24 06:11:13;;;;;;;0.90;0.80;;;;;;;;;;4958014;29;20546;-73
2021/05/24 06:14:20;;;;;;;1.00;0.60;;;;;;;;;;4950248;29;20204;-72
2021/05/24 06:17:25;;;;;;;0.73;0.60;;;;;;;;;;4916528;29;20204;-73
2021/05/24 06:20:30;;;;;;;3.73;0.57;;;;;;;;;;4938898;29;20180;-72
2021/05/24 06:23:35;;;;;;;1.73;0.83;;;;;;;;;;4943394;29;20211;-71
2021/05/24 06:26:39;;;;;;;1.63;0.50;;;;;;;;;;4956910;28;20199;-72
2021/05/24 06:29:43;;;;;;;0.83;0.67;;;;;;;;;;4938445;29;20537;-72
2021/05/24 06:32:47;;;;;;;0.80;0.60;;;;;;;;;;4953202;29;20575;-72
2021/05/24 06:35:51;;;;;;;0.60;0.40;;;;;;;;;;4955565;29;20207;-72
2021/05/24 06:38:56;;;;;;;2.13;0.80;;;;;;;;;;4945552;29;20200;-73
2021/05/24 06:42:01;;;;;;;2.77;0.80;;;;;;;;;;4937467;29;20224;-73
2021/05/24 06:45:06;;;;;;;1.57;0.60;;;;;;;;;;4937235;29;20204;-73
2021/05/24 06:48:10;;;;;;;1.43;0.60;;;;;;;;;;4938584;29;20513;-73
2021/05/24 06:51:14;;;;;;;0.80;0.60;;;;;;;;;;4950506;29;20195;-72
2021/05/24 06:54:18;;;;;;;0.60;0.60;;;;;;;;;;4934322;29;20215;-73
2021/05/24 06:57:22;;;;;;;0.73;0.60;;;;;;;;;;4939163;29;20203;-72
2021/05/24 07:00:26;;;;;;;9.60;0.90;;;;;;;;;;4926677;29;20180;-74
2021/05/24 07:03:30;;;;;;;1.27;0.50;;;;;;;;;;4914716;29;20223;-74
2021/05/24 07:06:35;;;;;;;2.10;0.67;;;;;;;;;;4944639;29;20531;-73
2021/05/24 07:09:39;;;;;;;1.57;0.50;;;;;;;;;;4940465;29;20192;-74
2021/05/24 07:12:43;;;;;;;2.43;0.70;;;;;;;;;;4937856;29;20710;-73
2021/05/24 07:15:47;;;;;;;0.60;0.57;;;;;;;;;;4942774;29;20187;-73
2021/05/24 07:18:51;;;;;;;3.80;0.67;;;;;;;;;;4935567;29;20536;-73
2021/05/24 07:21:56;;;;;;;1.20;0.67;;;;;;;;;;4950730;29;20188;-72
2021/05/24 07:25:00;;;;;;;1.03;0.70;;;;;;;;;;4956182;29;20199;-73
2021/05/24 07:28:04;;;;;;;0.70;0.50;;;;;;;;;;4955834;29;20199;-74
2021/05/24 07:31:08;;;;;;;0.80;0.60;;;;;;;;;;4939632;29;20200;-72
2021/05/24 07:34:12;;;;;;;5.00;0.83;;;;;;;;;;4941991;29;20212;-74
2021/05/24 07:37:16;;;;;;;1.23;0.60;;;;;;;;;;4937499;29;20184;-73
2021/05/24 07:40:21;;;;;;;3.27;0.60;;;;;;;;;;4938179;29;20184;-74
2021/05/24 07:43:25;;;;;;;1.83;0.50;;;;;;;;;;4941983;29;20211;-73
2021/05/24 07:46:29;;;;;;;0.77;0.67;;;;;;;;;;4938234;29;20189;-73
2021/05/24 07:49:34;;;;;;;2.33;0.60;;;;;;;;;;4926301;29;20192;-73
2021/05/24 07:52:38;;;;;;;1.27;0.50;;;;;;;;;;4938703;29;20223;-73
2021/05/24 07:55:42;;;;;;;1.47;0.60;;;;;;;;;;4942399;29;20188;-73
2021/05/24 07:58:52;;;;;;;1.70;0.50;;;;;;;;;;5111991;27;20790;-74
2021/05/24 08:01:59;;;;;;;1.03;0.50;;;;;;;;;;5108565;28;20279;-74
2021/05/24 08:05:04;;;;;;;2.90;0.60;;;;;;;;;;5089413;28;20182;-74
2021/05/24 08:08:08;;;;;;;0.70;0.30;;;;;;;;;;5089738;28;20179;-74
2021/05/24 08:11:14;;;;;;;0.83;0.50;;;;;;;;;;5084600;28;20187;-75
2021/05/24 08:14:18;;;;;;;2.13;0.57;;;;;;;;;;5072116;28;20183;-75
2021/05/24 08:17:23;;;;;;;0.60;0.40;;;;;;;;;;5077981;28;20194;-75
2021/05/24 08:20:28;;;;;;;1.70;0.50;;;;;;;;;;5089982;28;20187;-75
2021/05/24 08:23:32;;;;;;;0.50;0.40;;;;;;;;;;5089809;28;20215;-75
2021/05/24 08:26:37;;;;;;;0.93;0.47;;;;;;;;;;5090141;28;20194;-74
2021/05/24 08:29:41;;;;;;;0.60;0.40;;;;;;;;;;5077572;28;20183;-74
2021/05/24 08:32:46;;;;;;;0.60;0.50;;;;;;;;;;5090064;28;20588;-74
2021/05/24 08:35:51;;;;;;;1.17;0.60;;;;;;;;;;5086278;28;20190;-74
2021/05/24 08:38:56;;;;;;;2.00;0.57;;;;;;;;;;5100763;28;20608;-75
2021/05/24 08:42:00;;;;;;;2.00;0.70;;;;;;;;;;5089269;28;20218;-75
2021/05/24 08:45:06;;;;;;;0.87;0.50;;;;;;;;;;5080209;28;20195;-74
2021/05/24 08:48:12;;;;;;;0.77;0.40;;;;;;;;;;5069789;28;20175;-75
2021/05/24 08:51:16;;;;;;;0.60;0.40;;;;;;;;;;5068644;28;20207;-74
2021/05/24 08:54:21;;;;;;;1.13;0.50;;;;;;;;;;5071903;28;20194;-74
2021/05/24 08:57:25;;;;;;;2.10;0.63;;;;;;;;;;5088611;28;20226;-74
2021/05/24 09:00:29;;;;;;;0.90;0.50;;;;;;;;;;5088781;28;20183;-73
2021/05/24 09:03:35;;;;;;;0.77;0.40;;;;;;;;;;5069439;28;20223;-74
2021/05/24 09:06:42;;;;;;;0.70;0.47;;;;;;;;;;5069363;28;20208;-74
2021/05/24 09:10:01;;;;;;;1.00;0.50;;;;;;;;;;5057977;28;20195;-73
2021/05/24 09:13:15;;;;;;;0.97;0.70;;;;;;;;;;5056365;28;20224;-73
2021/05/24 09:16:53;;;;;;;3.50;0.80;;;;;;;;;;5073832;28;20187;-73
2021/05/24 09:19:58;;;;;;;0.70;0.40;;;;;;;;;;5075545;28;20175;-74
2021/05/24 09:23:26;;;;;;;0.87;0.67;;;;;;;;;;5057191;28;20223;-74
2021/05/24 09:26:35;;;;;;;1.90;0.80;;;;;;;;;;5057963;28;20192;-74
2021/05/24 09:29:45;;;;;;;1.43;0.70;;;;;;;;;;5066308;28;20172;-73
2021/05/24 09:32:49;;;;;;;1.43;0.73;;;;;;;;;;5055667;28;20220;-73
2021/05/24 09:35:54;;;;;;;0.77;0.70;;;;;;;;;;5055282;28;20180;-73
2021/05/24 09:39:05;;;;;;;2.03;0.70;;;;;;;;;;5055580;28;20555;-73
2021/05/24 09:42:13;;;;;;;1.23;0.60;;;;;;;;;;5043299;28;20568;-73
2021/05/24 09:45:19;;;;;;;2.40;0.50;;;;;;;;;;5054587;28;20640;-73
2021/05/24 09:48:31;;;;;;;2.17;0.50;;;;;;;;;;5054394;28;20169;-73
2021/05/24 09:51:37;;;;;;;1.10;0.50;;;;;;;;;;5054845;28;20624;-73
2021/05/24 09:54:41;;;;;;;0.87;0.50;;;;;;;;;;5054544;28;20654;-73
2021/05/24 09:57:53;;;;;;;2.50;0.90;;;;;;;;;;5067639;28;20211;-73
2021/05/24 10:01:14;;;;;;;0.80;0.70;;;;;;;;;;5074060;28;20203;-72
2021/05/24 10:04:21;;;;;;;1.47;0.73;;;;;;;;;;5055015;28;20184;-72
2021/05/24 10:07:25;;;;;;;1.53;0.53;;;;;;;;;;5069232;28;20184;-72
2021/05/24 10:10:29;;;;;;;0.73;0.70;;;;;;;;;;5073900;28;20188;-73
2021/05/24 10:13:33;;;;;;;0.87;0.70;;;;;;;;;;5073799;28;20219;-72
2021/05/24 10:16:45;;;;;;;0.80;0.60;;;;;;;;;;5074350;28;20203;-72
2021/05/24 10:19:49;;;;;;;2.83;0.67;;;;;;;;;;5074558;28;20188;-72
2021/05/24 10:22:53;;;;;;;1.60;0.53;;;;;;;;;;5074392;28;20218;-72
2021/05/24 10:26:00;;;;;;;0.77;0.47;;;;;;;;;;5073877;28;20191;-73
2021/05/24 10:29:06;;;;;;;0.70;0.50;;;;;;;;;;5073523;28;20224;-72
2021/05/24 10:32:10;;;;;;;1.33;0.67;;;;;;;;;;5073364;28;20215;-73
2021/05/24 10:35:39;;;;;;;2.43;0.67;;;;;;;;;;5074324;28;20189;-72
2021/05/24 10:38:43;;;;;;;1.00;0.67;;;;;;;;;;5054045;28;20208;-72
2021/05/24 10:41:59;;;;;;;3.17;1.03;;;;;;;;;;5053514;28;20643;-73
2021/05/24 10:45:22;;;;;;;1.03;0.50;;;;;;;;;;5071346;28;20638;-72
2021/05/24 10:48:34;;;;;;;1.53;0.57;;;;;;;;;;5054012;28;20181;-73
2021/05/24 10:51:48;;;;;;;2.87;0.70;;;;;;;;;;5066991;28;20188;-73
2021/05/24 10:54:52;;;;;;;2.30;0.70;;;;;;;;;;5072922;28;20199;-72
2021/05/24 10:58:15;;;;;;;2.10;0.80;;;;;;;;;;5073414;28;20227;-73
2021/05/24 11:01:19;;;;;;;7.17;1.10;;;;;;;;;;5072822;28;20180;-73
2021/05/24 11:04:46;;;;;;;5.43;0.70;;;;;;;;;;5062292;28;20646;-72
2021/05/24 11:07:51;;;;;;;0.50;0.40;;;;;;;;;;5053654;28;20173;-73
2021/05/24 11:10:55;;;;;;;0.67;0.67;;;;;;;;;;5058220;28;20175;-73
2021/05/24 11:14:01;;;;;;;3.63;0.80;;;;;;;;;;5087596;22;20235;-69
2021/05/24 11:17:05;;;;;;;0.87;0.70;;;;;;;;;;5061409;28;20176;-69
2021/05/24 11:20:48;;;;;;;1.67;0.70;;;;;;;;;;5073589;28;20642;-69
2021/05/24 11:27:09;;;;;;;2.10;0.80;;;;;;;;;;5075378;28;20180;-70
2021/05/24 11:30:26;;;;;;;5.50;0.97;;;;;;;;;;5061550;28;20172;-71
2021/05/24 11:33:39;;;;;;;2.27;0.77;;;;;;;;;;5060884;28;20219;-70
2021/05/24 11:36:43;;;;;;;1.13;0.80;;;;;;;;;;5074736;28;20195;-70
2021/05/24 11:39:53;;;;;;;0.90;0.73;;;;;;;;;;5073551;28;20693;-71
2021/05/24 11:43:12;;;;;;;2.43;0.60;;;;;;;;;;5060870;28;20207;-72
2021/05/24 11:46:16;;;;;;;4.73;0.63;;;;;;;;;;5073721;28;20654;-71
2021/05/24 11:49:48;;;;;;;4.87;0.63;;;;;;;;;;5073570;28;20180;-71
2021/05/24 11:52:52;;;;;;;1.30;0.80;;;;;;;;;;5054967;28;20215;-72
2021/05/24 11:56:11;;;;;;;1.63;0.87;;;;;;;;;;5073477;28;20179;-71
2021/05/24 11:59:18;;;;;;;2.43;0.70;;;;;;;;;;5070550;28;20211;-72
2021/05/24 12:02:23;;;;;;;3.77;0.80;;;;;;;;;;5069722;28;20661;-72
2021/05/24 12:05:28;;;;;;;1.20;0.73;;;;;;;;;;5089623;28;20183;-72
2021/05/24 12:08:32;;;;;;;1.53;0.70;;;;;;;;;;5089660;28;20209;-72
2021/05/24 12:11:53;;;;;;;1.13;0.73;;;;;;;;;;5089622;28;20182;-72
2021/05/24 12:15:00;;;;;;;2.27;0.93;;;;;;;;;;5088889;28;20218;-70
2021/05/24 12:18:05;;;;;;;1.10;0.80;;;;;;;;;;5049338;28;20188;-72
2021/05/24 12:21:09;;;;;;;1.23;0.90;;;;;;;;;;5078674;28;20190;-69
2021/05/24 12:24:14;;;;;;;1.60;1.20;;;;;;;;;;5088606;28;20649;-71
2021/05/24 12:27:19;;;;;;;8.73;7.63;;;;;;;;;;5089530;28;20175;-71
2021/05/24 12:30:31;;;;;;;1.87;1.77;;;;;;;;;;5079358;28;20191;-71
2021/05/24 12:33:35;;;;;;;2.83;1.50;;;;;;;;;;5069590;28;20219;-72
2021/05/24 12:36:48;;;;;;;1.47;1.17;;;;;;;;;;5076508;28;20183;-72
2021/05/24 12:39:54;;;;;;;1.20;0.80;;;;;;;;;;5075300;28;20207;-72
2021/05/24 12:42:59;;;;;;;2.77;1.60;;;;;;;;;;5049138;28;20220;-71
2021/05/24 12:46:22;;;;;;;4.73;3.00;;;;;;;;;;5052901;28;20176;-72
2021/05/24 12:49:36;;;;;;;5.10;2.77;;;;;;;;;;5053331;28;20191;-71
2021/05/24 12:52:40;;;;;;;5.17;1.00;;;;;;;;;;5056348;28;20224;-70
2021/05/24 12:55:46;;;;;;;1.70;0.70;;;;;;;;;;5058536;28;20187;-72
2021/05/24 12:58:50;;;;;;;2.00;1.30;;;;;;;;;;5076051;28;20207;-71
2021/05/24 13:02:02;;;;;;;3.83;1.10;;;;;;;;;;5075153;28;20199;-72
2021/05/24 13:05:18;;;;;;;1.20;0.70;;;;;;;;;;5076123;28;20195;-70
2021/05/24 13:08:22;;;;;;;1.93;1.00;;;;;;;;;;5075976;28;20171;-70
2021/05/24 13:11:59;;;;;;;2.57;0.90;;;;;;;;;;5075641;28;20191;-71
2021/05/24 13:15:04;;;;;;;4.37;0.83;;;;;;;;;;5051767;28;20200;-70
2021/05/24 13:18:27;;;;;;;2.40;0.93;;;;;;;;;;5063677;28;20175;-70
2021/05/24 13:26:05;;;;;;;2.50;0.90;;;;;;;;;;5075152;28;20195;-71
2021/05/24 13:29:02;;;;;;;2.23;0.90;;;;;;;;;;5074412;28;20527;-70
2021/05/24 13:32:06;;;;;;;3.03;1.03;;;;;;;;;;5063143;28;20219;-70
2021/05/24 13:35:23;;;;;;;3.03;0.97;;;;;;;;;;5075757;28;20172;-71
2021/05/24 13:38:27;;;;;;;1.87;1.03;;;;;;;;;;5062796;28;20188;-70
2021/05/24 13:41:34;;;;;;;3.80;1.63;;;;;;;;;;5075301;28;20199;-70
2021/05/24 13:44:39;;;;;;;4.40;2.20;;;;;;;;;;5075371;28;20199;-70
2021/05/24 13:47:44;;;;;;;3.73;1.47;;;;;;;;;;5074938;28;20646;-70
2021/05/24 13:50:48;;;;;;;1.60;1.00;;;;;;;;;;5063097;28;20188;-70
2021/05/24 13:53:53;;;;;;;1.33;0.90;;;;;;;;;;5074857;28;20219;-70
2021/05/24 13:56:58;;;;;;;2.40;1.20;;;;;;;;;;5074680;28;20646;-71
2021/05/24 14:00:05;;;;;;;3.17;1.10;;;;;;;;;;5074715;28;20559;-70
2021/05/24 14:03:09;;;;;;;2.23;1.00;;;;;;;;;;5074882;28;20215;-70
2021/05/24 14:06:17;;;;;;;2.63;0.93;;;;;;;;;;5074756;28;20199;-70
2021/05/24 14:09:20;;;;;;;1.40;0.90;;;;;;;;;;5062535;28;20653;-71
2021/05/24 14:12:25;;;;;;;1.83;1.00;;;;;;;;;;5059462;28;20214;-72
2021/05/24 14:15:29;;;;;;;2.30;1.20;;;;;;;;;;5075110;28;20175;-70
2021/05/24 14:18:33;;;;;;;2.43;1.40;;;;;;;;;;5074631;28;20523;-70
2021/05/24 14:21:38;;;;;;;2.53;1.10;;;;;;;;;;5074822;28;20171;-70
2021/05/24 14:24:42;;;;;;;1.67;0.90;;;;;;;;;;5074149;28;20180;-71
2021/05/24 14:27:47;;;;;;;1.27;1.00;;;;;;;;;;5073942;28;20191;-71
2021/05/24 14:30:53;;;;;;;2.43;1.10;;;;;;;;;;5054363;28;20513;-71
2021/05/24 14:33:57;;;;;;;1.73;1.20;;;;;;;;;;5063433;28;20567;-71
2021/05/24 14:37:01;;;;;;;1.10;1.00;;;;;;;;;;5062119;28;20183;-71
2021/05/24 14:40:07;;;;;;;1.60;1.17;;;;;;;;;;5074043;28;20669;-71
2021/05/24 14:43:11;;;;;;;2.73;0.90;;;;;;;;;;5073488;28;20222;-72
2021/05/24 14:46:15;;;;;;;2.53;1.00;;;;;;;;;;5054388;28;20184;-71
2021/05/24 14:49:19;;;;;;;2.70;1.23;;;;;;;;;;5053998;28;20188;-71
2021/05/24 14:52:23;;;;;;;2.53;1.00;;;;;;;;;;5070248;28;20223;-71
2021/05/24 14:55:30;;;;;;;2.30;0.90;;;;;;;;;;5073617;28;20187;-72
2021/05/24 14:58:34;;;;;;;1.90;1.20;;;;;;;;;;5073935;28;20179;-71
2021/05/24 15:01:39;;;;;;;1.30;1.10;;;;;;;;;;5074345;28;20175;-71
2021/05/24 15:04:43;;;;;;;3.03;1.30;;;;;;;;;;5061229;28;20195;-70
2021/05/24 15:07:47;;;;;;;2.90;2.60;;;;;;;;;;5072583;28;20191;-71
2021/05/24 15:10:52;;;;;;;2.90;2.70;;;;;;;;;;5073896;28;20171;-71
2021/05/24 15:13:56;;;;;;;2.70;2.10;;;;;;;;;;5072945;28;20227;-70
2021/05/24 15:17:02;;;;;;;3.63;2.63;;;;;;;;;;5073099;28;20535;-69
2021/05/24 15:20:07;;;;;;;2.70;1.53;;;;;;;;;;5073899;28;20563;-70
2021/05/24 15:23:12;;;;;;;2.37;1.00;;;;;;;;;;5072967;28;20219;-70
2021/05/24 15:26:16;;;;;;;2.67;1.20;;;;;;;;;;5073643;28;20535;-71
2021/05/24 15:29:24;;;;;;;5.47;1.50;;;;;;;;;;5072833;28;20179;-70
2021/05/24 15:32:28;;;;;;;2.60;1.20;;;;;;;;;;5060794;28;20215;-70
2021/05/24 15:35:32;;;;;;;6.63;1.10;;;;;;;;;;5060612;28;20191;-70
2021/05/24 15:38:37;;;;;;;2.87;0.87;;;;;;;;;;5073515;28;20621;-71
2021/05/24 15:41:41;;;;;;;2.33;1.10;;;;;;;;;;5060731;28;20183;-70
2021/05/24 15:44:46;;;;;;;1.63;1.10;;;;;;;;;;5072743;28;20634;-70
2021/05/24 15:47:50;;;;;;;3.20;1.10;;;;;;;;;;5072820;28;20626;-70
2021/05/24 15:50:58;;;;;;;3.60;1.03;;;;;;;;;;5072865;28;20527;-71
2021/05/24 15:54:03;;;;;;;3.57;2.33;;;;;;;;;;5073182;28;20215;-70
2021/05/24 15:57:06;;;;;;;5.47;4.97;;;;;;;;;;5072865;28;20179;-69
2021/05/24 16:00:12;;;;;;;7.43;1.77;;;;;;;;;;5074732;28;20558;-70
2021/05/24 16:03:18;;;;;;;3.93;1.33;;;;;;;;;;5057102;28;20219;-70
2021/05/24 16:06:22;;;;;;;3.33;1.60;;;;;;;;;;5070342;28;20183;-70
2021/05/24 16:09:27;;;;;;;1.30;1.20;;;;;;;;;;5068724;28;20175;-70
2021/05/24 16:12:31;;;;;;;3.63;3.33;;;;;;;;;;5056273;28;20563;-70
2021/05/24 16:15:36;;;;;;;3.37;2.27;;;;;;;;;;5078975;28;20191;-70
2021/05/24 16:18:40;;;;;;;5.90;2.10;;;;;;;;;;5069596;28;20183;-71
2021/05/24 16:21:46;;;;;;;7.40;5.23;;;;;;;;;;5059602;28;20195;-71
2021/05/24 16:25:01;;;;;;;4.40;2.30;;;;;;;;;;5081523;28;20191;-71
2021/05/24 16:28:10;;;;;;;2.40;1.97;;;;;;;;;;5092927;28;20186;-71
2021/05/24 16:31:14;;;;;;;4.27;1.90;;;;;;;;;;5081420;28;20633;-71
2021/05/24 16:34:20;;;;;;;3.33;1.57;;;;;;;;;;5066855;28;20191;-71
2021/05/24 16:37:26;;;;;;;3.20;1.80;;;;;;;;;;5079344;28;20187;-70
2021/05/24 16:40:33;;;;;;;2.17;1.87;;;;;;;;;;5082802;28;20559;-70
2021/05/24 16:43:37;;;;;;;2.57;1.90;;;;;;;;;;5073120;28;20586;-70
2021/05/24 16:46:42;;;;;;;4.20;1.87;;;;;;;;;;5069589;28;20183;-70
2021/05/24 16:49:47;;;;;;;2.33;1.53;;;;;;;;;;5073648;28;20191;-70
2021/05/24 16:52:51;;;;;;;1.90;1.43;;;;;;;;;;5079243;28;20604;-70
2021/05/24 16:55:59;;;;;;;1.93;1.30;;;;;;;;;;5073737;28;20195;-70
2021/05/24 16:59:04;;;;;;;2.20;2.00;;;;;;;;;;5072520;28;20196;-70
2021/05/24 17:02:10;;;;;;;2.37;2.00;;;;;;;;;;5074941;28;20211;-70
2021/05/24 17:05:16;;;;;;;4.57;1.50;;;;;;;;;;5088561;28;20183;-70
2021/05/24 17:08:20;;;;;;;4.23;1.67;;;;;;;;;;5072762;28;20536;-70
2021/05/24 17:11:25;;;;;;;4.10;1.50;;;;;;;;;;5052135;28;20177;-70
2021/05/24 17:14:29;;;;;;;2.20;1.90;;;;;;;;;;5068239;28;20210;-70
2021/05/24 17:17:33;;;;;;;2.70;2.40;;;;;;;;;;5092474;28;20538;-70
2021/05/24 17:20:37;;;;;;;1.87;1.20;;;;;;;;;;5092700;28;20202;-70
2021/05/24 17:23:41;;;;;;;2.00;1.70;;;;;;;;;;5091587;28;20977;-70
2021/05/24 17:26:45;;;;;;;4.23;1.80;;;;;;;;;;5092616;28;20179;-70
2021/05/24 17:29:49;;;;;;;2.70;1.70;;;;;;;;;;5072289;28;20187;-71
2021/05/24 17:32:54;;;;;;;4.07;1.50;;;;;;;;;;5072058;28;20558;-71
2021/05/24 17:35:58;;;;;;;2.00;1.30;;;;;;;;;;5057731;28;20183;-70
2021/05/24 17:39:03;;;;;;;3.60;1.40;;;;;;;;;;5072345;28;20721;-70
2021/05/24 17:42:08;;;;;;;1.23;1.13;;;;;;;;;;5071726;28;20211;-69
2021/05/24 17:45:15;;;;;;;3.97;1.60;;;;;;;;;;5072238;28;20650;-70
2021/05/24 17:48:21;;;;;;;1.77;1.50;;;;;;;;;;5070507;28;20783;-69
2021/05/24 17:51:27;;;;;;;3.23;1.80;;;;;;;;;;5071938;28;20175;-69
2021/05/24 17:54:31;;;;;;;1.67;1.50;;;;;;;;;;5071752;28;20195;-69
2021/05/24 17:57:37;;;;;;;1.70;1.37;;;;;;;;;;5072174;28;20180;-73
2021/05/24 18:00:41;;;;;;;4.63;1.80;;;;;;;;;;5051577;28;20777;-73
2021/05/24 18:03:46;;;;;;;2.97;1.80;;;;;;;;;;5077564;28;20238;-73
2021/05/24 18:06:50;;;;;;;3.90;2.00;;;;;;;;;;5079673;28;20650;-74
2021/05/24 18:09:54;;;;;;;2.17;1.80;;;;;;;;;;5079601;28;20187;-73
2021/05/24 18:13:00;;;;;;;3.40;1.93;;;;;;;;;;5074127;28;20223;-74
2021/05/24 18:16:05;;;;;;;2.13;1.90;;;;;;;;;;5071467;28;20175;-73
2021/05/24 18:19:09;;;;;;;3.47;2.20;;;;;;;;;;5058828;28;20180;-72
2021/05/24 18:22:17;;;;;;;3.30;1.87;;;;;;;;;;5072601;28;20211;-73
2021/05/24 18:25:21;;;;;;;2.90;2.00;;;;;;;;;;5091768;28;20190;-74
2021/05/24 18:28:26;;;;;;;2.03;1.60;;;;;;;;;;5089985;28;20645;-73
2021/05/24 18:31:32;;;;;;;2.33;1.90;;;;;;;;;;5091392;28;20171;-73
2021/05/24 18:34:37;;;;;;;4.27;1.80;;;;;;;;;;5060493;28;20191;-73
2021/05/24 18:37:44;;;;;;;3.03;1.67;;;;;;;;;;5078631;28;20202;-73
2021/05/24 18:40:51;;;;;;;2.40;2.10;;;;;;;;;;5071485;28;20900;-73
2021/05/24 18:43:55;;;;;;;2.37;1.90;;;;;;;;;;5058474;28;20223;-73